Terminal Aerodrome Forecast
Issued by NWS

Home | Current Version | Previous Version | Text Only | Print | Product List | Glossary Off
Versions: 1 2 3 4 5 6 7 8 9 10 11 12 13 14 15 16 17 18 19 20 21 22

000
FTUS43 KBIS 250800 AAB
TAFMOT
TAF AMD
KMOT 250804Z 2508/2606 10009KT P6SM -SHRA BKN005 OVC020
     FM250900 28015KT P6SM OVC012
     FM251200 28012KT P6SM SCT050
     FM251800 26019G26KT P6SM SKC
     FM260200 23010KT P6SM SKC=

USA.gov is the U.S. government's official web portal to all federal, state and local government web resources and services.